Portada
METAR-TAF:

METAR-TAF

Aeroports :

Apia, Upolu, Samoa

latitud: 13-49S, longitud: 172-00W, altitud: 5 m

Observació

L'informe es va fer fa 19 minuts, a les 15:00 UTC
Vent 4 kt del Sud
Temperatura 22°C
Humitat 100%
Pressió 1011 hPa
Visibilitat 10 km o més
Escasses núvols a una alçada de 2400 ft
Núvols disperses a una alçada de 28000 ft

METAR: NSFA 091500Z 17004KT 9999 FEW024 SCT280 22/22 Q1011 RMK NIL

Hora: 04:19 (15:19 UTC)

Pronòstic

L'informe es va fer fa 4 hores i 5 minuts, a les 11:14 UTC
Pronòstic vàlid del 09 a les 12 UTC al 10 a les 12 UTC
Vent 3 kt amb direcció variable
Visibilitat 10 km o més
Escasses núvols a una alçada de 2800 ft
Probabilitat 40% :
Temporalment
l' 09 a les 18 UTC al 10 a les 05 UTC
Visibilitat: 3000 m
Cel ennuvolat a una alçada de 1500 ft
Escasses núvols a una alçada de 1800 ft, Cumulonimbus.
tempesta, pluja

TAF: NSFA 091114Z 0912/1012 VRB03KT 9999 FEW028 PROB40 TEMPO 0918/1005 3000 TSRA BKN015 FEW018CB

Observacions i pronòstics meteorològics de més de 4000 aeroports (METAR i TAF).

Les estacions disponibles són els punts grocs i vermells al mapa.

Posi el ratolí al punt desitjat per veure el nom de l'estació.

Feu clic per veure les observacions i els pronòstics meteorològics.

Per canviar el mapa: feu clic els botons verds amb una creu de color negre per apropar; al botó verd amb un guió per allunyar la imatge; o en les fletxes verdes per a mapes adjacents.


METAR-TAF: